sensor_id;sensor_type;location;lat;lon;timestamp;P1;durP1;ratioP1;P2;durP2;ratioP2
2107;SDS011;1060;52.492;13.388;2024-03-02T02:41:15;76.97;;;61.40;;
2107;SDS011;1060;52.492;13.388;2024-03-02T02:43:47;83.13;;;62.53;;
2107;SDS011;1060;52.492;13.388;2024-03-02T02:46:27;81.70;;;65.50;;
2107;SDS011;1060;52.492;13.388;2024-03-02T02:49:09;66.53;;;59.23;;
2107;SDS011;1060;52.492;13.388;2024-03-02T02:52:14;76.03;;;57.97;;
2107;SDS011;1060;52.492;13.388;2024-03-02T03:54:13;64.87;;;54.87;;
2107;SDS011;1060;52.492;13.388;2024-03-02T03:57:27;67.97;;;56.40;;
2107;SDS011;1060;52.492;13.388;2024-03-02T04:00:36;65.83;;;53.33;;
2107;SDS011;1060;52.492;13.388;2024-03-02T04:03:26;68.97;;;51.33;;
2107;SDS011;1060;52.492;13.388;2024-03-02T04:06:27;57.70;;;50.33;;
2107;SDS011;1060;52.492;13.388;2024-03-02T06:30:07;66.03;;;52.47;;
2107;SDS011;1060;52.492;13.388;2024-03-02T06:32:34;64.10;;;54.23;;
2107;SDS011;1060;52.492;13.388;2024-03-02T06:35:00;63.47;;;52.50;;
2107;SDS011;1060;52.492;13.388;2024-03-02T06:37:30;70.70;;;54.33;;
2107;SDS011;1060;52.492;13.388;2024-03-02T06:39:57;59.60;;;53.13;;
2107;SDS011;1060;52.492;13.388;2024-03-02T06:42:23;68.90;;;56.83;;
2107;SDS011;1060;52.492;13.388;2024-03-02T06:44:49;61.67;;;53.10;;
2107;SDS011;1060;52.492;13.388;2024-03-02T06:47:21;65.53;;;55.37;;
2107;SDS011;1060;52.492;13.388;2024-03-02T06:49:51;68.13;;;52.87;;
2107;SDS011;1060;52.492;13.388;2024-03-02T06:52:28;69.87;;;54.87;;
2107;SDS011;1060;52.492;13.388;2024-03-02T06:55:37;65.60;;;51.30;;
2107;SDS011;1060;52.492;13.388;2024-03-02T06:58:06;75.60;;;50.10;;
2107;SDS011;1060;52.492;13.388;2024-03-02T07:00:44;58.03;;;49.47;;
2107;SDS011;1060;52.492;13.388;2024-03-02T07:06:20;60.30;;;48.83;;
2107;SDS011;1060;52.492;13.388;2024-03-02T07:09:37;58.83;;;50.77;;
2107;SDS011;1060;52.492;13.388;2024-03-02T07:15:37;60.10;;;47.63;;
2107;SDS011;1060;52.492;13.388;2024-03-02T07:18:29;62.13;;;51.57;;
2107;SDS011;1060;52.492;13.388;2024-03-02T07:20:59;59.87;;;49.13;;
2107;SDS011;1060;52.492;13.388;2024-03-02T07:23:29;62.27;;;48.57;;
2107;SDS011;1060;52.492;13.388;2024-03-02T07:25:58;57.63;;;51.53;;
2107;SDS011;1060;52.492;13.388;2024-03-02T07:28:29;53.27;;;46.17;;
2107;SDS011;1060;52.492;13.388;2024-03-02T07:31:16;52.40;;;45.90;;
2107;SDS011;1060;52.492;13.388;2024-03-02T07:33:45;55.93;;;47.53;;
2107;SDS011;1060;52.492;13.388;2024-03-02T07:36:17;54.67;;;48.47;;
2107;SDS011;1060;52.492;13.388;2024-03-02T07:38:50;54.40;;;48.10;;
2107;SDS011;1060;52.492;13.388;2024-03-02T07:41:16;57.03;;;48.47;;
2107;SDS011;1060;52.492;13.388;2024-03-02T07:43:42;59.37;;;47.90;;
2107;SDS011;1060;52.492;13.388;2024-03-02T07:46:10;55.07;;;47.40;;
2107;SDS011;1060;52.492;13.388;2024-03-02T07:51:23;55.17;;;47.53;;
2107;SDS011;1060;52.492;13.388;2024-03-02T07:53:49;52.23;;;45.37;;
2107;SDS011;1060;52.492;13.388;2024-03-02T07:56:21;56.93;;;45.47;;
2107;SDS011;1060;52.492;13.388;2024-03-02T07:58:49;57.43;;;45.53;;
2107;SDS011;1060;52.492;13.388;2024-03-02T08:01:16;57.30;;;47.10;;
2107;SDS011;1060;52.492;13.388;2024-03-02T08:03:42;56.53;;;48.33;;
2107;SDS011;1060;52.492;13.388;2024-03-02T08:06:16;64.00;;;50.63;;
2107;SDS011;1060;52.492;13.388;2024-03-02T08:08:43;58.10;;;48.60;;
2107;SDS011;1060;52.492;13.388;2024-03-02T08:11:09;54.83;;;48.20;;
2107;SDS011;1060;52.492;13.388;2024-03-02T08:13:35;52.43;;;46.77;;
2107;SDS011;1060;52.492;13.388;2024-03-02T08:16:01;59.50;;;50.23;;
2107;SDS011;1060;52.492;13.388;2024-03-02T08:18:39;60.67;;;50.73;;
2107;SDS011;1060;52.492;13.388;2024-03-02T08:21:23;56.47;;;50.00;;
2107;SDS011;1060;52.492;13.388;2024-03-02T08:23:50;56.87;;;47.60;;
2107;SDS011;1060;52.492;13.388;2024-03-02T08:26:19;52.83;;;47.33;;
2107;SDS011;1060;52.492;13.388;2024-03-02T08:28:46;53.37;;;46.00;;
2107;SDS011;1060;52.492;13.388;2024-03-02T08:31:15;59.10;;;47.00;;
2107;SDS011;1060;52.492;13.388;2024-03-02T08:33:46;58.47;;;49.83;;
2107;SDS011;1060;52.492;13.388;2024-03-02T08:37:26;55.90;;;44.53;;
2107;SDS011;1060;52.492;13.388;2024-03-02T08:40:21;58.23;;;46.87;;
2107;SDS011;1060;52.492;13.388;2024-03-02T08:42:48;50.30;;;44.97;;
2107;SDS011;1060;52.492;13.388;2024-03-02T08:59:35;51.13;;;44.87;;
2107;SDS011;1060;52.492;13.388;2024-03-02T09:02:01;47.23;;;42.17;;
2107;SDS011;1060;52.492;13.388;2024-03-02T09:04:28;47.30;;;42.20;;
2107;SDS011;1060;52.492;13.388;2024-03-02T09:06:54;48.93;;;42.03;;
2107;SDS011;1060;52.492;13.388;2024-03-02T09:15:50;55.23;;;43.20;;
2107;SDS011;1060;52.492;13.388;2024-03-02T09:18:17;48.87;;;40.10;;
2107;SDS011;1060;52.492;13.388;2024-03-02T09:21:30;48.20;;;41.27;;
2107;SDS011;1060;52.492;13.388;2024-03-02T09:25:21;51.10;;;38.63;;
2107;SDS011;1060;52.492;13.388;2024-03-02T09:27:52;44.90;;;40.30;;
2107;SDS011;1060;52.492;13.388;2024-03-02T09:33:32;50.87;;;40.63;;
2107;SDS011;1060;52.492;13.388;2024-03-02T09:36:40;49.47;;;40.90;;
2107;SDS011;1060;52.492;13.388;2024-03-02T09:46:31;41.97;;;37.60;;
2107;SDS011;1060;52.492;13.388;2024-03-02T09:55:23;43.47;;;37.90;;
2107;SDS011;1060;52.492;13.388;2024-03-02T09:57:57;39.30;;;35.20;;
2107;SDS011;1060;52.492;13.388;2024-03-02T10:00:47;53.17;;;41.13;;
2107;SDS011;1060;52.492;13.388;2024-03-02T10:03:14;42.67;;;38.03;;
2107;SDS011;1060;52.492;13.388;2024-03-02T10:05:44;44.50;;;37.77;;
2107;SDS011;1060;52.492;13.388;2024-03-02T10:08:10;43.70;;;37.37;;
2107;SDS011;1060;52.492;13.388;2024-03-02T10:16:06;39.87;;;35.73;;
2107;SDS011;1060;52.492;13.388;2024-03-02T10:18:40;39.63;;;35.37;;
2107;SDS011;1060;52.492;13.388;2024-03-02T10:24:16;42.37;;;37.83;;
2107;SDS011;1060;52.492;13.388;2024-03-02T10:30:07;40.20;;;36.03;;
2107;SDS011;1060;52.492;13.388;2024-03-02T10:32:40;36.43;;;31.50;;
2107;SDS011;1060;52.492;13.388;2024-03-02T10:35:17;35.57;;;32.00;;
2107;SDS011;1060;52.492;13.388;2024-03-02T10:37:50;34.80;;;30.10;;
2107;SDS011;1060;52.492;13.388;2024-03-02T10:40:24;33.87;;;29.70;;
2107;SDS011;1060;52.492;13.388;2024-03-02T10:45:47;33.50;;;30.00;;
2107;SDS011;1060;52.492;13.388;2024-03-02T10:48:18;34.93;;;30.20;;
2107;SDS011;1060;52.492;13.388;2024-03-02T10:51:11;36.17;;;32.23;;
2107;SDS011;1060;52.492;13.388;2024-03-02T10:54:07;33.97;;;30.30;;
2107;SDS011;1060;52.492;13.388;2024-03-02T10:56:44;31.90;;;28.73;;
2107;SDS011;1060;52.492;13.388;2024-03-02T11:02:25;30.17;;;26.93;;
2107;SDS011;1060;52.492;13.388;2024-03-02T11:05:27;29.97;;;26.47;;
2107;SDS011;1060;52.492;13.388;2024-03-02T11:08:23;32.50;;;27.17;;
2107;SDS011;1060;52.492;13.388;2024-03-02T11:11:39;31.07;;;27.87;;
2107;SDS011;1060;52.492;13.388;2024-03-02T11:14:33;33.40;;;28.07;;
2107;SDS011;1060;52.492;13.388;2024-03-02T11:17:13;30.73;;;27.40;;
2107;SDS011;1060;52.492;13.388;2024-03-02T11:20:27;30.70;;;27.70;;
2107;SDS011;1060;52.492;13.388;2024-03-02T11:26:16;29.13;;;25.70;;
2107;SDS011;1060;52.492;13.388;2024-03-02T11:28:54;26.10;;;23.50;;
2107;SDS011;1060;52.492;13.388;2024-03-02T11:31:57;28.67;;;25.13;;
2107;SDS011;1060;52.492;13.388;2024-03-02T11:34:48;28.30;;;25.40;;
2107;SDS011;1060;52.492;13.388;2024-03-02T11:37:55;31.23;;;28.07;;
2107;SDS011;1060;52.492;13.388;2024-03-02T11:40:44;40.60;;;34.63;;
2107;SDS011;1060;52.492;13.388;2024-03-02T11:43:13;30.60;;;27.43;;
2107;SDS011;1060;52.492;13.388;2024-03-02T11:49:36;30.83;;;27.67;;
2107;SDS011;1060;52.492;13.388;2024-03-02T11:52:15;31.43;;;28.20;;
2107;SDS011;1060;52.492;13.388;2024-03-02T11:58:22;27.53;;;23.57;;
2107;SDS011;1060;52.492;13.388;2024-03-02T12:00:55;31.23;;;27.87;;
2107;SDS011;1060;52.492;13.388;2024-03-02T12:03:38;34.10;;;26.60;;
2107;SDS011;1060;52.492;13.388;2024-03-02T12:06:24;33.20;;;25.47;;
2107;SDS011;1060;52.492;13.388;2024-03-02T12:08:53;30.73;;;27.60;;
2107;SDS011;1060;52.492;13.388;2024-03-02T12:11:23;32.07;;;28.63;;
2107;SDS011;1060;52.492;13.388;2024-03-02T12:13:57;30.47;;;27.37;;
2107;SDS011;1060;52.492;13.388;2024-03-02T12:16:25;26.80;;;24.30;;
2107;SDS011;1060;52.492;13.388;2024-03-02T12:19:08;28.17;;;25.20;;
2107;SDS011;1060;52.492;13.388;2024-03-02T12:21:57;27.50;;;24.57;;
2107;SDS011;1060;52.492;13.388;2024-03-02T12:24:33;27.60;;;24.67;;
2107;SDS011;1060;52.492;13.388;2024-03-02T12:27:03;27.47;;;24.70;;
2107;SDS011;1060;52.492;13.388;2024-03-02T12:39:24;36.80;;;26.07;;
2107;SDS011;1060;52.492;13.388;2024-03-02T12:42:07;28.10;;;25.10;;
2107;SDS011;1060;52.492;13.388;2024-03-02T12:44:36;36.13;;;31.77;;
2107;SDS011;1060;52.492;13.388;2024-03-02T12:47:11;31.10;;;26.13;;
2107;SDS011;1060;52.492;13.388;2024-03-02T12:50:30;30.10;;;27.10;;
2107;SDS011;1060;52.492;13.388;2024-03-02T12:53:01;30.57;;;25.10;;
2107;SDS011;1060;52.492;13.388;2024-03-02T13:36:18;27.30;;;24.60;;
2107;SDS011;1060;52.492;13.388;2024-03-02T13:39:10;30.97;;;27.83;;
2107;SDS011;1060;52.492;13.388;2024-03-02T13:41:48;22.40;;;20.20;;
2107;SDS011;1060;52.492;13.388;2024-03-02T13:44:34;25.47;;;23.00;;
2107;SDS011;1060;52.492;13.388;2024-03-02T13:47:19;28.07;;;25.30;;
2107;SDS011;1060;52.492;13.388;2024-03-02T13:49:46;30.90;;;26.30;;
2107;SDS011;1060;52.492;13.388;2024-03-02T13:52:14;27.73;;;23.57;;
2107;SDS011;1060;52.492;13.388;2024-03-02T13:54:44;25.07;;;22.37;;
2107;SDS011;1060;52.492;13.388;2024-03-02T13:57:10;23.70;;;20.67;;
2107;SDS011;1060;52.492;13.388;2024-03-02T13:59:37;24.40;;;21.90;;
2107;SDS011;1060;52.492;13.388;2024-03-02T14:09:14;21.70;;;19.07;;
2107;SDS011;1060;52.492;13.388;2024-03-02T14:11:47;21.20;;;18.97;;
2107;SDS011;1060;52.492;13.388;2024-03-02T14:17:19;22.27;;;18.87;;
2107;SDS011;1060;52.492;13.388;2024-03-02T14:20:09;20.03;;;17.90;;
2107;SDS011;1060;52.492;13.388;2024-03-02T14:50:03;20.80;;;18.70;;
2107;SDS011;1060;52.492;13.388;2024-03-02T14:52:43;22.07;;;18.23;;
2107;SDS011;1060;52.492;13.388;2024-03-02T14:55:58;31.70;;;28.30;;
2107;SDS011;1060;52.492;13.388;2024-03-02T15:28:19;19.53;;;17.53;;
2107;SDS011;1060;52.492;13.388;2024-03-02T15:31:12;21.23;;;19.00;;
2107;SDS011;1060;52.492;13.388;2024-03-02T15:33:50;24.20;;;20.53;;
2107;SDS011;1060;52.492;13.388;2024-03-02T15:36:21;23.50;;;20.87;;
2107;SDS011;1060;52.492;13.388;2024-03-02T15:38:47;21.30;;;19.10;;
2107;SDS011;1060;52.492;13.388;2024-03-02T15:41:17;20.80;;;18.80;;
2107;SDS011;1060;52.492;13.388;2024-03-02T15:43:52;24.43;;;19.00;;
2107;SDS011;1060;52.492;13.388;2024-03-02T15:46:19;21.53;;;19.43;;
2107;SDS011;1060;52.492;13.388;2024-03-02T15:48:46;21.70;;;19.40;;
2107;SDS011;1060;52.492;13.388;2024-03-02T16:36:02;21.13;;;15.13;;
2107;SDS011;1060;52.492;13.388;2024-03-02T16:45:10;18.83;;;15.90;;
2107;SDS011;1060;52.492;13.388;2024-03-02T16:47:36;18.57;;;14.40;;
2107;SDS011;1060;52.492;13.388;2024-03-02T16:50:03;16.10;;;14.23;;
2107;SDS011;1060;52.492;13.388;2024-03-02T16:52:34;18.60;;;16.70;;
2107;SDS011;1060;52.492;13.388;2024-03-02T16:55:03;17.27;;;15.17;;
2107;SDS011;1060;52.492;13.388;2024-03-02T16:57:30;17.60;;;15.90;;
2107;SDS011;1060;52.492;13.388;2024-03-02T16:59:58;26.70;;;21.37;;
2107;SDS011;1060;52.492;13.388;2024-03-02T17:02:28;20.03;;;17.23;;
2107;SDS011;1060;52.492;13.388;2024-03-02T17:05:03;20.03;;;18.07;;
2107;SDS011;1060;52.492;13.388;2024-03-02T17:07:29;19.63;;;17.80;;
2107;SDS011;1060;52.492;13.388;2024-03-02T17:09:56;21.80;;;17.30;;
2107;SDS011;1060;52.492;13.388;2024-03-02T17:12:42;18.97;;;16.97;;
2107;SDS011;1060;52.492;13.388;2024-03-02T17:15:09;17.80;;;15.90;;
2107;SDS011;1060;52.492;13.388;2024-03-02T17:17:38;21.53;;;15.40;;
2107;SDS011;1060;52.492;13.388;2024-03-02T17:20:23;21.93;;;17.20;;
2107;SDS011;1060;52.492;13.388;2024-03-02T17:30:56;20.60;;;17.13;;
2107;SDS011;1060;52.492;13.388;2024-03-02T17:33:29;19.93;;;15.87;;
2107;SDS011;1060;52.492;13.388;2024-03-02T17:36:01;17.13;;;15.33;;
2107;SDS011;1060;52.492;13.388;2024-03-02T17:38:46;18.53;;;15.70;;
2107;SDS011;1060;52.492;13.388;2024-03-02T17:41:17;20.33;;;17.50;;
2107;SDS011;1060;52.492;13.388;2024-03-02T17:43:43;21.03;;;17.73;;
2107;SDS011;1060;52.492;13.388;2024-03-02T17:47:15;22.87;;;20.40;;
2107;SDS011;1060;52.492;13.388;2024-03-02T17:50:29;23.00;;;19.90;;
2107;SDS011;1060;52.492;13.388;2024-03-02T17:53:23;23.60;;;18.80;;
2107;SDS011;1060;52.492;13.388;2024-03-02T18:16:07;33.73;;;22.30;;
2107;SDS011;1060;52.492;13.388;2024-03-02T18:18:35;30.80;;;24.57;;
2107;SDS011;1060;52.492;13.388;2024-03-02T18:21:01;25.47;;;21.90;;
2107;SDS011;1060;52.492;13.388;2024-03-02T18:23:34;27.77;;;23.23;;
2107;SDS011;1060;52.492;13.388;2024-03-02T18:26:03;25.03;;;20.83;;
2107;SDS011;1060;52.492;13.388;2024-03-02T19:37:24;30.67;;;21.63;;
2107;SDS011;1060;52.492;13.388;2024-03-02T19:39:56;28.03;;;25.17;;
2107;SDS011;1060;52.492;13.388;2024-03-02T19:42:22;22.67;;;20.50;;
2107;SDS011;1060;52.492;13.388;2024-03-02T19:44:52;22.17;;;19.93;;
2107;SDS011;1060;52.492;13.388;2024-03-02T19:47:26;23.23;;;20.77;;
2107;SDS011;1060;52.492;13.388;2024-03-02T19:52:59;35.87;;;26.17;;
2107;SDS011;1060;52.492;13.388;2024-03-02T19:55:33;41.50;;;36.17;;
2107;SDS011;1060;52.492;13.388;2024-03-02T19:58:13;36.90;;;28.60;;
2107;SDS011;1060;52.492;13.388;2024-03-02T20:00:39;27.93;;;24.97;;
2107;SDS011;1060;52.492;13.388;2024-03-02T20:03:08;34.27;;;27.30;;
2107;SDS011;1060;52.492;13.388;2024-03-02T20:05:42;32.37;;;26.43;;
2107;SDS011;1060;52.492;13.388;2024-03-02T20:08:36;34.63;;;30.93;;
2107;SDS011;1060;52.492;13.388;2024-03-02T20:11:06;38.17;;;31.53;;
2107;SDS011;1060;52.492;13.388;2024-03-02T20:13:53;51.90;;;42.23;;
2107;SDS011;1060;52.492;13.388;2024-03-02T20:16:52;43.37;;;34.80;;
2107;SDS011;1060;52.492;13.388;2024-03-02T20:19:59;35.07;;;31.40;;
2107;SDS011;1060;52.492;13.388;2024-03-02T20:22:48;40.50;;;34.40;;
2107;SDS011;1060;52.492;13.388;2024-03-02T20:25:28;43.50;;;32.73;;
2107;SDS011;1060;52.492;13.388;2024-03-02T20:27:57;39.77;;;31.70;;
2107;SDS011;1060;52.492;13.388;2024-03-02T20:30:50;42.87;;;36.30;;
2107;SDS011;1060;52.492;13.388;2024-03-02T20:36:27;45.73;;;35.93;;
2107;SDS011;1060;52.492;13.388;2024-03-02T20:39:25;36.93;;;30.70;;
2107;SDS011;1060;52.492;13.388;2024-03-02T20:42:08;38.63;;;33.30;;
2107;SDS011;1060;52.492;13.388;2024-03-02T20:44:40;41.17;;;33.03;;
2107;SDS011;1060;52.492;13.388;2024-03-02T20:47:53;36.73;;;32.63;;
2107;SDS011;1060;52.492;13.388;2024-03-02T20:50:34;41.63;;;37.27;;
2107;SDS011;1060;52.492;13.388;2024-03-02T21:12:51;40.87;;;34.80;;
2107;SDS011;1060;52.492;13.388;2024-03-02T21:15:47;54.20;;;46.77;;
2107;SDS011;1060;52.492;13.388;2024-03-02T21:18:47;43.73;;;36.60;;
2107;SDS011;1060;52.492;13.388;2024-03-02T21:21:52;40.13;;;36.03;;
2107;SDS011;1060;52.492;13.388;2024-03-02T21:24:33;43.87;;;35.93;;
2107;SDS011;1060;52.492;13.388;2024-03-02T21:27:04;40.53;;;33.80;;
2107;SDS011;1060;52.492;13.388;2024-03-02T21:30:19;51.67;;;45.00;;
2107;SDS011;1060;52.492;13.388;2024-03-02T21:33:06;36.90;;;31.80;;
2107;SDS011;1060;52.492;13.388;2024-03-02T21:36:11;35.17;;;31.93;;
2107;SDS011;1060;52.492;13.388;2024-03-02T21:38:58;34.67;;;28.20;;
2107;SDS011;1060;52.492;13.388;2024-03-02T21:41:36;31.93;;;28.73;;
2107;SDS011;1060;52.492;13.388;2024-03-02T21:44:12;39.60;;;31.23;;
2107;SDS011;1060;52.492;13.388;2024-03-02T21:47:06;38.67;;;34.70;;
2107;SDS011;1060;52.492;13.388;2024-03-02T21:49:38;34.70;;;28.87;;
2107;SDS011;1060;52.492;13.388;2024-03-02T21:52:49;41.40;;;32.43;;
2107;SDS011;1060;52.492;13.388;2024-03-02T21:58:02;39.13;;;33.40;;
2107;SDS011;1060;52.492;13.388;2024-03-02T22:00:32;38.40;;;34.20;;
2107;SDS011;1060;52.492;13.388;2024-03-02T22:03:13;36.60;;;31.57;;
2107;SDS011;1060;52.492;13.388;2024-03-02T22:06:34;33.47;;;30.00;;
2107;SDS011;1060;52.492;13.388;2024-03-02T22:09:27;34.77;;;31.17;;
2107;SDS011;1060;52.492;13.388;2024-03-02T22:11:56;37.17;;;33.13;;
2107;SDS011;1060;52.492;13.388;2024-03-02T22:14:26;38.10;;;33.47;;
2107;SDS011;1060;52.492;13.388;2024-03-02T22:16:59;37.87;;;29.90;;
2107;SDS011;1060;52.492;13.388;2024-03-02T22:19:29;42.20;;;35.70;;
2107;SDS011;1060;52.492;13.388;2024-03-02T22:22:13;39.40;;;33.63;;
2107;SDS011;1060;52.492;13.388;2024-03-02T22:24:40;52.43;;;40.47;;
2107;SDS011;1060;52.492;13.388;2024-03-02T22:27:42;38.63;;;34.60;;
2107;SDS011;1060;52.492;13.388;2024-03-02T22:30:19;37.73;;;30.93;;
2107;SDS011;1060;52.492;13.388;2024-03-02T22:32:49;40.33;;;34.63;;
2107;SDS011;1060;52.492;13.388;2024-03-02T22:35:37;38.60;;;32.70;;
2107;SDS011;1060;52.492;13.388;2024-03-02T22:38:08;49.63;;;43.97;;
2107;SDS011;1060;52.492;13.388;2024-03-02T22:40:42;38.23;;;33.60;;
2107;SDS011;1060;52.492;13.388;2024-03-02T22:43:14;41.63;;;37.13;;
2107;SDS011;1060;52.492;13.388;2024-03-02T22:45:41;40.10;;;35.77;;
2107;SDS011;1060;52.492;13.388;2024-03-02T22:48:16;39.47;;;34.00;;
2107;SDS011;1060;52.492;13.388;2024-03-02T22:50:48;40.73;;;31.00;;
2107;SDS011;1060;52.492;13.388;2024-03-02T22:53:14;41.03;;;30.63;;
2107;SDS011;1060;52.492;13.388;2024-03-02T22:55:41;40.50;;;32.37;;
2107;SDS011;1060;52.492;13.388;2024-03-02T22:58:13;37.90;;;33.00;;
2107;SDS011;1060;52.492;13.388;2024-03-02T23:00:39;47.70;;;35.23;;
2107;SDS011;1060;52.492;13.388;2024-03-02T23:03:15;36.67;;;32.03;;
2107;SDS011;1060;52.492;13.388;2024-03-02T23:05:49;43.73;;;37.50;;
2107;SDS011;1060;52.492;13.388;2024-03-02T23:09:08;47.60;;;37.00;;
2107;SDS011;1060;52.492;13.388;2024-03-02T23:11:12;45.73;;;39.00;;
2107;SDS011;1060;52.492;13.388;2024-03-02T23:13:47;43.67;;;34.13;;
2107;SDS011;1060;52.492;13.388;2024-03-02T23:16:24;54.00;;;41.03;;
2107;SDS011;1060;52.492;13.388;2024-03-02T23:18:55;45.33;;;35.70;;
2107;SDS011;1060;52.492;13.388;2024-03-02T23:21:41;45.37;;;36.33;;
2107;SDS011;1060;52.492;13.388;2024-03-02T23:24:17;40.10;;;35.03;;
2107;SDS011;1060;52.492;13.388;2024-03-02T23:26:49;42.93;;;37.13;;
2107;SDS011;1060;52.492;13.388;2024-03-02T23:29:19;39.77;;;34.70;;
2107;SDS011;1060;52.492;13.388;2024-03-02T23:31:47;45.10;;;36.93;;
2107;SDS011;1060;52.492;13.388;2024-03-02T23:34:23;38.07;;;33.43;;
2107;SDS011;1060;52.492;13.388;2024-03-02T23:36:51;43.53;;;36.37;;
2107;SDS011;1060;52.492;13.388;2024-03-02T23:39:18;40.73;;;35.70;;
2107;SDS011;1060;52.492;13.388;2024-03-02T23:42:07;45.07;;;36.30;;
2107;SDS011;1060;52.492;13.388;2024-03-02T23:44:34;46.00;;;37.20;;
2107;SDS011;1060;52.492;13.388;2024-03-02T23:47:13;45.07;;;38.23;;
2107;SDS011;1060;52.492;13.388;2024-03-02T23:49:42;51.73;;;39.10;;
2107;SDS011;1060;52.492;13.388;2024-03-02T23:52:17;48.60;;;36.87;;
2107;SDS011;1060;52.492;13.388;2024-03-02T23:59:00;48.00;;;35.80;;
